LEWISTON (LEW)

Elevation: 1870' · TRINITY R basin · Operator: US Bureau of Reclamation

Provisional data, subject to change.
Query executed Saturday at 6:04:29   clock

Select a sensor type for a plot of data.
Note: Reservoir Flows are daily averages.

Earlier

Date RES ELE    STORAGE    RES CHG    OUTFLOW    INFLOW    EVAP    RIV REL    SPILL    DIS PWR   
 FEET   AF   AF   CFS   CFS   CFS   CFS   CFS   CFS  
06/27/2014 1901.38 14195 -75 2182 2149 5 469 353 0
06/28/2014 1900.77 13742 -453 2262 2040 6 469 353 0
06/29/2014 1901.22 14076 334 1931 2108 9 470 354 0
06/30/2014 1901.66 14405 329 1962 2135 7 468 352 0
07/01/2014 1901.76 14479 74 3633 3678 8 467 351 0
07/02/2014 1901.20 14061 -418 3712 3510 9 484 368 0
07/03/2014 1901.24 14091 30 3676 3698 7 453 337 0
07/04/2014 1901.10 13986 -105 3776 3731 8 456 340 0
07/05/2014 1900.99 13904 -82 3779 3746 8 456 340 0
07/06/2014 1901.28 14120 216 3669 3790 12 457 341 0
07/07/2014 1901.58 14345 225 3619 3740 8 460 344 0
07/08/2014 1901.68 14420 75 3609 3656 9 462 346 0
07/09/2014 1901.53 14307 -113 3612 3564 9 461 345 0
07/10/2014 1901.47 14263 -44 3101 3088 9 461 345 0
07/11/2014 1901.52 14300 37 3052 3079 8 460 344 0
07/12/2014 1901.71 14442 142 3037 3116 7 463 347 0
07/13/2014 1901.82 14524 82 3133 3182 8 463 347 0
07/14/2014 1901.82 14524 0 3113 3122 9 465 349 0
07/15/2014 1901.84 14539 15 3231 3246 7 462 346 0
07/16/2014 1901.00 13911 -628 3009 2697 5 457 341 0
07/17/2014 1900.54 13572 -339 3008 2847 10 456 340 0
07/18/2014 1900.28 13381 -191 3130 3041 7 454 338 0
07/19/2014 1901.66 14405 1024 3300 3824 8 460 344 0
07/20/2014 1901.16 14031 -374 3218 3038 9 459 343 0
07/21/2014 1901.59 14352 321 3110 3279 7 458 342 0
07/22/2014 1901.73 14457 105 3000 3059 6 463 347 0
07/23/2014 1901.01 13918 -539 3173 2905 4 455 339 0
07/24/2014 1901.07 13963 45 3071 3098 4 456 340 0
07/25/2014 1901.50 14285 322 3145 3316 9 459 343 0
07/26/2014 -- -- -- -- -- -- -- -- --

Later | Latest

Warning! This data is preliminary and subject to revision.

Download Data Now Download Data Now | Show LEW Map | Plot LEW Data | 1 Month LEW Data | Real-Time LEW Data | LEW Info